createdAt,value
2022-10-17T00:00:28.154Z,100729.53
2022-10-17T00:02:56.105Z,100724.16
2022-10-17T00:05:24.010Z,100681.78
2022-10-17T00:07:52.015Z,100722.78
2022-10-17T00:10:20.695Z,100718.38
2022-10-17T00:12:49.060Z,100720.38
2022-10-17T00:15:20.547Z,100717.78
2022-10-17T00:17:48.488Z,100710.94
2022-10-17T00:20:16.869Z,100702.38
2022-10-17T00:22:44.942Z,100718.22
2022-10-17T00:25:13.394Z,100713.72
2022-10-17T00:27:42.558Z,100719.00
2022-10-17T00:30:13.634Z,100717.28
2022-10-17T00:32:43.396Z,100715.59
2022-10-17T00:35:13.740Z,100711.34
2022-10-17T00:37:42.874Z,100720.41
2022-10-17T00:40:12.058Z,100715.53
2022-10-17T00:42:40.209Z,100711.13
2022-10-17T00:45:22.058Z,100709.84
2022-10-17T00:47:55.251Z,100712.69
2022-10-17T00:50:23.464Z,100701.28
2022-10-17T00:52:52.357Z,100728.50
2022-10-17T00:55:26.360Z,100720.91
2022-10-17T00:57:54.742Z,100722.25
2022-10-17T01:00:22.712Z,100711.91
2022-10-17T01:02:52.060Z,100700.69
2022-10-17T01:05:20.833Z,100718.19
2022-10-17T01:07:51.817Z,100721.28
2022-10-17T01:10:20.783Z,100678.34
2022-10-17T01:12:58.615Z,100721.38
2022-10-17T01:15:40.668Z,100720.69
2022-10-17T01:18:25.724Z,100707.56
2022-10-17T01:21:22.435Z,100706.91
2022-10-17T01:24:14.655Z,100706.81
2022-10-17T01:27:06.927Z,100701.75
2022-10-17T01:29:58.406Z,100694.88
2022-10-17T01:32:35.984Z,100722.78
2022-10-17T01:35:12.679Z,100717.91
2022-10-17T01:37:47.376Z,100709.94
2022-10-17T01:40:21.378Z,100714.53
2022-10-17T01:43:03.404Z,100706.47
2022-10-17T01:45:38.500Z,100700.19
2022-10-17T01:48:12.566Z,100701.19
2022-10-17T01:50:47.500Z,100706.16
2022-10-17T01:53:20.164Z,100608.31
2022-10-17T01:55:51.637Z,100681.59
2022-10-17T01:58:25.242Z,100629.28
2022-10-17T02:00:55.416Z,100687.91
2022-10-17T02:03:25.890Z,100668.13
2022-10-17T02:05:53.756Z,100677.28
2022-10-17T02:08:29.328Z,100684.66
2022-10-17T02:11:01.997Z,100624.31
2022-10-17T02:13:42.352Z,100631.59
2022-10-17T02:16:27.152Z,100671.50
2022-10-17T02:19:09.474Z,100673.38
2022-10-17T02:21:45.766Z,100668.09
2022-10-17T02:24:21.642Z,100670.38
2022-10-17T02:26:56.646Z,100669.97
2022-10-17T02:29:30.221Z,100662.59
2022-10-17T02:32:03.169Z,100658.41
2022-10-17T02:34:37.554Z,100666.75
2022-10-17T02:37:08.197Z,100638.75
2022-10-17T02:39:37.156Z,100663.13
2022-10-17T02:42:08.579Z,100639.19
2022-10-17T02:44:40.642Z,100641.69
2022-10-17T02:47:18.298Z,100661.56
2022-10-17T02:49:52.673Z,100644.09
2022-10-17T02:52:26.642Z,100663.25
2022-10-17T02:54:59.766Z,100669.97
2022-10-17T02:57:32.067Z,100610.41
2022-10-17T03:00:03.893Z,100667.81
2022-10-17T03:02:40.102Z,100648.59
2022-10-17T03:05:13.578Z,100679.47
2022-10-17T03:07:41.544Z,100666.63
2022-10-17T03:10:09.501Z,100677.72
2022-10-17T03:12:37.771Z,100665.56
2022-10-17T03:15:06.938Z,100667.97
2022-10-17T03:17:36.286Z,100669.97
2022-10-17T03:20:04.698Z,100665.41
2022-10-17T03:22:34.583Z,100657.22
2022-10-17T03:25:04.882Z,100657.22
2022-10-17T03:27:35.886Z,100651.56
2022-10-17T03:30:04.594Z,100649.41
2022-10-17T03:32:34.909Z,100550.03
2022-10-17T03:35:02.866Z,100579.34
2022-10-17T03:37:31.312Z,100656.41
2022-10-17T03:40:01.780Z,100640.81
2022-10-17T03:42:30.468Z,100653.59
2022-10-17T03:44:58.761Z,100653.84
2022-10-17T03:47:27.018Z,100604.81
2022-10-17T03:49:55.113Z,100665.22
2022-10-17T03:52:23.002Z,100665.22
2022-10-17T03:54:55.713Z,100617.97
2022-10-17T03:57:25.156Z,100669.66
2022-10-17T03:59:53.527Z,100665.69
2022-10-17T04:02:22.559Z,100672.91
2022-10-17T04:04:51.138Z,100672.28
2022-10-17T04:07:19.311Z,100668.63
2022-10-17T04:09:49.829Z,100668.28
2022-10-17T04:12:20.593Z,100643.69
2022-10-17T04:14:50.056Z,100680.69
2022-10-17T04:17:18.369Z,100659.75
2022-10-17T04:19:46.514Z,100674.81
2022-10-17T04:22:17.246Z,100671.19
2022-10-17T04:24:45.124Z,100686.22
2022-10-17T04:27:31.570Z,100686.03
2022-10-17T04:30:01.075Z,100678.47
2022-10-17T04:32:31.834Z,100690.03
2022-10-17T04:35:21.820Z,100698.97
2022-10-17T04:37:55.894Z,100695.56
2022-10-17T04:40:23.970Z,100682.31
2022-10-17T04:42:54.118Z,100605.88
2022-10-17T04:45:28.311Z,100681.84
2022-10-17T04:48:01.051Z,100695.97
2022-10-17T04:50:29.106Z,100691.84
2022-10-17T04:53:32.515Z,100614.06
2022-10-17T04:56:00.305Z,100697.84
2022-10-17T04:58:30.002Z,100683.78
2022-10-17T05:00:59.331Z,100685.59
2022-10-17T05:03:30.340Z,100695.81
2022-10-17T05:05:58.201Z,100694.75
2022-10-17T05:08:26.204Z,100686.13
2022-10-17T05:10:54.097Z,100702.00
2022-10-17T05:13:21.975Z,100699.03
2022-10-17T05:15:50.375Z,100694.19
2022-10-17T05:18:20.123Z,100698.13
2022-10-17T05:20:48.062Z,100687.38
2022-10-17T05:23:16.840Z,100688.63
2022-10-17T05:25:46.002Z,100702.53
2022-10-17T05:28:13.914Z,100691.97
2022-10-17T05:30:43.686Z,100700.88
2022-10-17T05:33:11.595Z,100689.34
2022-10-17T05:35:40.884Z,100701.19
2022-10-17T05:38:08.930Z,100705.13
2022-10-17T05:40:39.306Z,100703.13
2022-10-17T05:43:07.385Z,100704.41
2022-10-17T05:45:35.170Z,100701.91
2022-10-17T05:48:03.443Z,100709.09
2022-10-17T05:50:31.707Z,100682.84
2022-10-17T05:53:16.698Z,100714.34
2022-10-17T05:55:56.753Z,100717.22
2022-10-17T05:58:45.409Z,100692.13
2022-10-17T06:01:22.991Z,100713.81
2022-10-17T06:03:50.930Z,100592.06
2022-10-17T06:06:20.004Z,100714.69
2022-10-17T06:08:50.551Z,100718.00
2022-10-17T06:11:24.038Z,100711.00
2022-10-17T06:13:51.927Z,100724.88
2022-10-17T06:16:24.973Z,100741.75
2022-10-17T06:18:52.845Z,100642.91
2022-10-17T06:21:23.551Z,100667.31
2022-10-17T06:23:54.782Z,100708.66
2022-10-17T06:26:30.093Z,100742.03
2022-10-17T06:28:58.395Z,100738.63
2022-10-17T06:31:30.107Z,100745.38
2022-10-17T06:33:57.897Z,100754.38
2022-10-17T06:36:25.827Z,100754.38
2022-10-17T06:38:55.163Z,100710.09
2022-10-17T06:41:30.416Z,100751.59
2022-10-17T06:44:10.943Z,100752.50
2022-10-17T06:46:57.464Z,100765.19
2022-10-17T06:49:25.801Z,100764.84
2022-10-17T06:52:01.014Z,100753.41
2022-10-17T06:54:53.771Z,100701.69
2022-10-17T06:57:32.199Z,100758.44
2022-10-17T07:00:23.332Z,100767.91
2022-10-17T07:02:55.037Z,100758.16
2022-10-17T07:05:23.022Z,100744.56
2022-10-17T07:07:51.042Z,100761.09
2022-10-17T07:10:21.329Z,100734.56
2022-10-17T07:12:49.407Z,100767.50
2022-10-17T07:15:17.259Z,100758.00
2022-10-17T07:17:50.329Z,100776.50
2022-10-17T07:20:20.362Z,100784.06
2022-10-17T07:22:50.932Z,100778.63
2022-10-17T07:25:21.044Z,100783.97
2022-10-17T07:27:56.304Z,100746.91
2022-10-17T07:30:24.931Z,100789.66
2022-10-17T07:33:06.799Z,100788.06
2022-10-17T07:35:35.522Z,100790.91
2022-10-17T07:38:03.388Z,100788.16
2022-10-17T07:40:32.734Z,100796.78
2022-10-17T07:43:01.515Z,100801.44
2022-10-17T07:45:30.228Z,100805.00
2022-10-17T07:47:59.020Z,100813.72
2022-10-17T07:50:27.164Z,100811.47
2022-10-17T07:52:55.162Z,100813.94
2022-10-17T07:55:23.064Z,100818.00
2022-10-17T07:57:52.282Z,100811.69
2022-10-17T08:00:20.201Z,100815.28
2022-10-17T08:02:48.418Z,100820.47
2022-10-17T08:05:16.487Z,100816.47
2022-10-17T08:07:44.311Z,100725.09
2022-10-17T08:10:13.409Z,100798.88
2022-10-17T08:12:41.578Z,100784.91
2022-10-17T08:15:12.186Z,100790.31
2022-10-17T08:17:40.420Z,100811.94
2022-10-17T08:20:09.254Z,100814.50
2022-10-17T08:22:37.239Z,100713.19
2022-10-17T08:25:05.645Z,100811.50
2022-10-17T08:27:34.502Z,100789.31
2022-10-17T08:30:02.967Z,100805.34
2022-10-17T08:32:32.705Z,100808.81
2022-10-17T08:35:01.231Z,100786.66
2022-10-17T08:37:30.438Z,100803.09
2022-10-17T08:39:58.496Z,100811.97
2022-10-17T08:42:40.055Z,100765.25
2022-10-17T08:45:16.362Z,100800.94
2022-10-17T08:47:47.380Z,100802.19
2022-10-17T08:50:25.100Z,100790.28
2022-10-17T08:52:56.429Z,100774.22
2022-10-17T08:55:30.772Z,100784.19
2022-10-17T08:57:58.933Z,100784.09
2022-10-17T09:00:30.763Z,100789.91
2022-10-17T09:03:19.348Z,100771.78
2022-10-17T09:05:52.586Z,100784.66
2022-10-17T09:08:32.959Z,100779.84
2022-10-17T09:11:08.260Z,100788.41
2022-10-17T09:13:48.359Z,100785.19
2022-10-17T09:16:40.184Z,100782.28
2022-10-17T09:19:18.371Z,100764.28
2022-10-17T09:21:51.472Z,100753.50
2022-10-17T09:24:25.397Z,100794.44
2022-10-17T09:26:55.669Z,100779.13
2022-10-17T09:29:24.331Z,100775.75
2022-10-17T09:32:01.767Z,100770.81
2022-10-17T09:34:33.386Z,100774.31
2022-10-17T09:37:03.247Z,100789.63
2022-10-17T09:39:32.052Z,100786.72
2022-10-17T09:42:01.613Z,100795.22
2022-10-17T09:44:32.316Z,100793.06
2022-10-17T09:47:24.475Z,100807.38
2022-10-17T09:49:54.133Z,100806.63
2022-10-17T09:52:27.118Z,100778.13
2022-10-17T09:55:00.849Z,100805.81
2022-10-17T09:57:28.718Z,100810.44
2022-10-17T10:00:02.010Z,100805.91
2022-10-17T10:02:33.529Z,100805.69
2022-10-17T10:05:06.751Z,100802.50
2022-10-17T10:07:37.231Z,100786.97
2022-10-17T10:10:06.069Z,100808.38
2022-10-17T10:12:35.707Z,100812.53
2022-10-17T10:15:24.019Z,100813.50
2022-10-17T10:17:51.854Z,100736.38
2022-10-17T10:20:31.581Z,100805.13
2022-10-17T10:23:14.224Z,100824.94
2022-10-17T10:25:54.602Z,100825.06
2022-10-17T10:28:26.565Z,100830.03
2022-10-17T10:30:56.953Z,100835.72
2022-10-17T10:33:28.566Z,100835.25
2022-10-17T10:36:01.599Z,100821.00
2022-10-17T10:38:30.685Z,100814.81
2022-10-17T10:41:04.372Z,100831.78
2022-10-17T10:43:36.598Z,100836.91
2022-10-17T10:46:07.460Z,100839.41
2022-10-17T10:48:36.969Z,100828.50
2022-10-17T10:51:14.529Z,100843.22
2022-10-17T10:53:48.324Z,100854.34
2022-10-17T10:56:20.126Z,100851.13
2022-10-17T10:58:55.249Z,100820.91
2022-10-17T11:01:30.435Z,100800.66
2022-10-17T11:04:13.179Z,100833.66
2022-10-17T11:06:45.882Z,100812.75
2022-10-17T11:09:26.234Z,100832.22
2022-10-17T11:12:00.001Z,100825.22
2022-10-17T11:14:39.457Z,100814.03
2022-10-17T11:17:18.640Z,100738.72
2022-10-17T11:19:52.672Z,100814.09
2022-10-17T11:22:29.294Z,100822.00
2022-10-17T11:25:01.646Z,100809.69
2022-10-17T11:27:30.697Z,100813.88
2022-10-17T11:29:59.533Z,100742.00
2022-10-17T11:32:32.884Z,100788.41
2022-10-17T11:35:05.146Z,100811.94
2022-10-17T11:37:39.511Z,100811.31
2022-10-17T11:40:19.317Z,100806.22
2022-10-17T11:42:56.076Z,100818.06
2022-10-17T11:45:26.490Z,100801.22
2022-10-17T11:48:00.069Z,100820.63
2022-10-17T11:53:23.867Z,100830.53
2022-10-17T11:55:53.649Z,100847.22
2022-10-17T11:58:35.804Z,100854.00
2022-10-17T12:01:16.028Z,100846.59
2022-10-17T12:03:48.060Z,100855.19
2022-10-17T12:06:25.852Z,100859.84
2022-10-17T12:09:02.588Z,100828.22
2022-10-17T12:11:41.371Z,100865.97
2022-10-17T12:14:37.956Z,100867.44
2022-10-17T12:17:07.517Z,100866.34
2022-10-17T12:19:37.691Z,100868.22
2022-10-17T12:22:07.317Z,100868.72
2022-10-17T12:24:41.323Z,100848.97
2022-10-17T12:27:42.350Z,100874.59
2022-10-17T12:30:24.967Z,100879.56
2022-10-17T12:33:07.789Z,100757.69
2022-10-17T12:35:37.772Z,100886.78
2022-10-17T12:38:21.424Z,100879.00
2022-10-17T12:40:53.456Z,100892.41
2022-10-17T12:43:46.794Z,100892.81
2022-10-17T12:46:34.801Z,100894.34
2022-10-17T12:49:06.176Z,100894.31
2022-10-17T12:52:07.234Z,100899.91
2022-10-17T12:54:47.653Z,100899.25
2022-10-17T12:57:25.355Z,100907.84
2022-10-17T12:59:57.866Z,100904.13
2022-10-17T13:02:30.773Z,100872.34
2022-10-17T13:05:07.865Z,100894.56
2022-10-17T13:07:37.825Z,100893.34
2022-10-17T13:10:07.687Z,100905.88
2022-10-17T13:12:41.159Z,100883.72
2022-10-17T13:15:16.749Z,100845.81
2022-10-17T13:17:44.659Z,100905.44
2022-10-17T13:20:25.650Z,100904.78
2022-10-17T13:22:58.366Z,100912.97
2022-10-17T13:25:28.746Z,100920.84
2022-10-17T13:28:12.856Z,100923.56
2022-10-17T13:30:41.016Z,100908.75
2022-10-17T13:33:32.280Z,100915.50
2022-10-17T13:36:03.122Z,100895.28
2022-10-17T13:38:35.628Z,100907.38
2022-10-17T13:41:33.523Z,100904.75
2022-10-17T13:43:53.451Z,100910.53
2022-10-17T13:46:37.229Z,100895.13
2022-10-17T13:49:16.498Z,100911.53
2022-10-17T13:51:47.952Z,100925.03
2022-10-17T13:54:29.377Z,100926.56
2022-10-17T13:56:58.112Z,100926.44
2022-10-17T13:59:29.952Z,100851.03
2022-10-17T14:01:57.979Z,100923.59
2022-10-17T14:04:25.859Z,100926.78
2022-10-17T14:06:55.471Z,100925.22
2022-10-17T14:09:26.777Z,100920.34
2022-10-17T14:12:01.697Z,100904.47
2022-10-17T14:14:46.105Z,100920.66
2022-10-17T14:17:24.832Z,100932.53
2022-10-17T14:20:16.074Z,100928.50
2022-10-17T14:22:50.451Z,100901.44
2022-10-17T14:25:30.604Z,100929.06
2022-10-17T14:28:08.079Z,100928.69
2022-10-17T14:30:55.722Z,100925.66
2022-10-17T14:33:27.781Z,100935.91
2022-10-17T14:35:57.469Z,100918.59
2022-10-17T14:38:28.528Z,100897.75
2022-10-17T14:41:22.102Z,100953.50
2022-10-17T14:43:54.524Z,100882.19
2022-10-17T14:46:22.487Z,100944.91
2022-10-17T14:48:58.569Z,100953.94
2022-10-17T14:51:26.561Z,100957.53
2022-10-17T14:54:19.090Z,100959.72
2022-10-17T14:56:52.365Z,100974.44
2022-10-17T14:59:48.526Z,100962.13
2022-10-17T15:02:12.025Z,100957.19
2022-10-17T15:04:39.843Z,100980.06
2022-10-17T15:07:07.810Z,100992.69
2022-10-17T15:09:37.422Z,100988.66
2022-10-17T15:12:12.204Z,100993.22
2022-10-17T15:14:40.068Z,100924.81
2022-10-17T15:17:14.148Z,100993.09
2022-10-17T15:19:42.473Z,100990.69
2022-10-17T15:22:10.593Z,100986.78
2022-10-17T15:24:40.098Z,100996.09
2022-10-17T15:27:14.828Z,100998.19
2022-10-17T15:29:42.763Z,100984.44
2022-10-17T15:32:10.846Z,100999.88
2022-10-17T15:34:38.741Z,100996.59
2022-10-17T15:37:07.495Z,101001.78
2022-10-17T15:39:35.322Z,100998.88
2022-10-17T15:42:06.454Z,101012.34
2022-10-17T15:44:34.277Z,101010.41
2022-10-17T15:47:02.913Z,101014.97
2022-10-17T15:49:30.805Z,100977.75
2022-10-17T15:51:58.625Z,101005.22
2022-10-17T15:54:26.491Z,100994.56
2022-10-17T15:56:56.061Z,100967.59
2022-10-17T15:59:33.080Z,101009.97
2022-10-17T16:02:00.954Z,101004.53
2022-10-17T16:04:30.621Z,101020.69
2022-10-17T16:06:58.416Z,101021.47
2022-10-17T16:09:26.279Z,101027.50
2022-10-17T16:11:54.137Z,101025.75
2022-10-17T16:14:21.961Z,101035.94
2022-10-17T16:16:51.167Z,100991.53
2022-10-17T16:19:19.041Z,101040.59
2022-10-17T16:21:47.058Z,101021.59
2022-10-17T16:24:14.869Z,101040.03
2022-10-17T16:26:42.738Z,101046.81
2022-10-17T16:29:10.684Z,101039.38
2022-10-17T16:31:42.897Z,101043.31
2022-10-17T16:34:14.128Z,101028.00
2022-10-17T16:36:42.870Z,101060.97
2022-10-17T16:39:10.780Z,101065.47
2022-10-17T16:41:40.298Z,101067.69
2022-10-17T16:44:10.232Z,101010.94
2022-10-17T16:46:38.824Z,101076.41
2022-10-17T16:49:07.566Z,101072.44
2022-10-17T16:51:36.957Z,101074.00
2022-10-17T16:54:05.280Z,101085.63
2022-10-17T16:56:33.315Z,101100.75
2022-10-17T16:59:02.230Z,101095.91
2022-10-17T17:01:30.438Z,101090.16
2022-10-17T17:03:59.925Z,101063.19
2022-10-17T17:06:30.141Z,101097.38
2022-10-17T17:08:59.458Z,101098.44
2022-10-17T17:11:29.339Z,101100.25
2022-10-17T17:13:58.525Z,101063.13
2022-10-17T17:16:27.911Z,101112.53
2022-10-17T17:18:57.408Z,101111.25
2022-10-17T17:21:27.036Z,101113.69
2022-10-17T17:23:57.224Z,101090.19
2022-10-17T17:26:28.172Z,101128.34
2022-10-17T17:28:58.630Z,101125.69
2022-10-17T17:31:28.341Z,101139.22
2022-10-17T17:33:56.780Z,101134.63
2022-10-17T17:36:26.479Z,101146.56
2022-10-17T17:38:56.339Z,101152.41
2022-10-17T17:41:26.400Z,101153.25
2022-10-17T17:43:54.777Z,101139.44
2022-10-17T17:46:23.989Z,101145.19
2022-10-17T17:48:53.167Z,101128.84
2022-10-17T17:51:28.440Z,101161.81
2022-10-17T17:53:57.816Z,101165.19
2022-10-17T17:56:28.858Z,101126.72
2022-10-17T17:58:59.626Z,101163.38
2022-10-17T18:01:28.984Z,101162.84
2022-10-17T18:03:58.863Z,101165.41
2022-10-17T18:06:27.467Z,101171.97
2022-10-17T18:08:59.212Z,101157.88
2022-10-17T18:11:29.636Z,101167.00
2022-10-17T18:13:58.930Z,101125.00
2022-10-17T18:16:27.974Z,101159.38
2022-10-17T18:18:56.130Z,101139.38
2022-10-17T18:21:24.067Z,101168.84
2022-10-17T18:23:52.813Z,101153.34
2022-10-17T18:26:20.854Z,101154.41
2022-10-17T18:28:50.939Z,101086.50
2022-10-17T18:31:23.959Z,101153.88
2022-10-17T18:33:53.772Z,101149.75
2022-10-17T18:36:22.725Z,101131.66
2022-10-17T18:38:51.495Z,101153.09
2022-10-17T18:41:21.796Z,101165.41
2022-10-17T18:43:52.780Z,101161.66
2022-10-17T18:46:22.425Z,101175.94
2022-10-17T18:48:52.719Z,101164.81
2022-10-17T18:51:22.469Z,101171.03
2022-10-17T18:53:52.019Z,101164.97
2022-10-17T18:56:20.856Z,101149.16
2022-10-17T18:58:48.958Z,101171.75
2022-10-17T19:01:20.505Z,101182.75
2022-10-17T19:03:50.631Z,101176.19
2022-10-17T19:06:20.722Z,101188.91
2022-10-17T19:08:48.991Z,101185.56
2022-10-17T19:11:19.007Z,101185.72
2022-10-17T19:13:48.053Z,101174.94
2022-10-17T19:16:19.068Z,101199.78
2022-10-17T19:18:50.906Z,101208.81
2022-10-17T19:21:21.869Z,101197.41
2022-10-17T19:23:52.314Z,101182.88
2022-10-17T19:26:21.217Z,101213.22
2022-10-17T19:28:51.490Z,101215.13
2022-10-17T19:31:25.573Z,101141.91
2022-10-17T19:33:54.813Z,101215.53
2022-10-17T19:36:27.470Z,101219.13
2022-10-17T19:38:59.309Z,101197.31
2022-10-17T19:41:27.989Z,101178.50
2022-10-17T19:43:56.120Z,101223.56
2022-10-17T19:46:27.071Z,101223.50
2022-10-17T19:48:55.341Z,101228.06
2022-10-17T19:51:25.355Z,101217.22
2022-10-17T19:53:55.019Z,101205.66
2022-10-17T19:56:24.584Z,101209.47
2022-10-17T19:58:53.973Z,101203.28
2022-10-17T20:01:26.072Z,101233.28
2022-10-17T20:03:54.487Z,101229.97
2022-10-17T20:06:23.193Z,101231.69
2022-10-17T20:08:51.685Z,101228.28
2022-10-17T20:11:21.822Z,101238.16
2022-10-17T20:13:50.511Z,101235.38
2022-10-17T20:16:21.403Z,101238.25
2022-10-17T20:18:51.985Z,101223.09
2022-10-17T20:21:22.319Z,101256.97
2022-10-17T20:23:51.324Z,101243.50
2022-10-17T20:26:36.552Z,101228.06
2022-10-17T20:29:11.228Z,101252.56
2022-10-17T20:31:40.495Z,101257.06
2022-10-17T20:34:13.649Z,101262.47
2022-10-17T20:36:42.084Z,101265.09
2022-10-17T20:39:12.266Z,101267.25
2022-10-17T20:41:40.031Z,101264.44
2022-10-17T20:44:08.453Z,101265.34
2022-10-17T20:46:38.459Z,101254.97
2022-10-17T20:49:10.292Z,101243.19
2022-10-17T20:51:38.410Z,101245.66
2022-10-17T20:54:06.974Z,101273.06
2022-10-17T20:56:36.097Z,101192.19
2022-10-17T20:59:06.515Z,101285.34
2022-10-17T21:01:36.377Z,101287.16
2022-10-17T21:06:54.518Z,101292.84
2022-10-17T21:09:22.835Z,101106.25
2022-10-17T21:11:55.043Z,101292.84
2022-10-17T21:14:24.225Z,101308.06
2022-10-17T21:16:53.247Z,101292.56
2022-10-17T21:19:22.316Z,101316.31
2022-10-17T21:21:50.479Z,101144.88
2022-10-17T21:24:20.786Z,101311.22
2022-10-17T21:26:55.173Z,101320.38
2022-10-17T21:29:24.187Z,101327.63
2022-10-17T21:31:55.056Z,101323.47
2022-10-17T21:34:25.065Z,101293.19
2022-10-17T21:36:53.703Z,101313.19
2022-10-17T21:39:24.782Z,101320.03
2022-10-17T21:41:53.503Z,101320.59
2022-10-17T21:44:23.338Z,101321.72
2022-10-17T21:46:52.417Z,101317.09
2022-10-17T21:49:22.035Z,101315.13
2022-10-17T21:51:51.677Z,101325.06
2022-10-17T21:54:22.930Z,101276.09
2022-10-17T21:56:51.442Z,101324.50
2022-10-17T21:59:19.414Z,101319.88
2022-10-17T22:01:47.727Z,101319.81
2022-10-17T22:04:17.235Z,101209.31
2022-10-17T22:06:46.757Z,101314.38
2022-10-17T22:09:16.522Z,101281.41
2022-10-17T22:11:48.311Z,101316.47
2022-10-17T22:14:18.329Z,101319.16
2022-10-17T22:16:47.440Z,101311.44
2022-10-17T22:19:17.953Z,101327.75
2022-10-17T22:21:45.901Z,101280.19
2022-10-17T22:24:16.709Z,101333.03
2022-10-17T22:26:46.697Z,101323.56
2022-10-17T22:29:15.088Z,101334.03
2022-10-17T22:31:43.065Z,101332.94
2022-10-17T22:34:13.509Z,101332.22
2022-10-17T22:36:41.721Z,101297.94
2022-10-17T22:39:09.664Z,101320.75
2022-10-17T22:41:37.583Z,101308.59
2022-10-17T22:44:08.034Z,101336.50
2022-10-17T22:46:36.067Z,101342.81
2022-10-17T22:49:03.927Z,101315.34
2022-10-17T22:51:31.899Z,101338.19
2022-10-17T22:53:59.676Z,101322.81
2022-10-17T22:56:27.565Z,101338.44
2022-10-17T22:58:55.420Z,101338.56
2022-10-17T23:01:26.524Z,101331.56
2022-10-17T23:03:55.315Z,101332.59
2022-10-17T23:06:24.047Z,101324.13
2022-10-17T23:08:52.824Z,101347.94
2022-10-17T23:11:21.235Z,101321.75
2022-10-17T23:13:49.192Z,101343.56
2022-10-17T23:16:17.357Z,101344.53
2022-10-17T23:18:46.925Z,101358.28
2022-10-17T23:21:14.827Z,101349.63
2022-10-17T23:23:42.821Z,101351.31
2022-10-17T23:26:12.891Z,101352.19
2022-10-17T23:28:41.743Z,101354.84
2022-10-17T23:31:11.126Z,101282.88
2022-10-17T23:33:41.253Z,101353.91
2022-10-17T23:36:10.762Z,101353.06
2022-10-17T23:38:39.001Z,101358.47
2022-10-17T23:41:07.156Z,101354.06
2022-10-17T23:43:35.237Z,101316.44
2022-10-17T23:46:03.409Z,101358.03
2022-10-17T23:48:31.611Z,101361.69
2022-10-17T23:50:59.647Z,101367.28
2022-10-17T23:53:28.822Z,101358.25
2022-10-17T23:55:56.946Z,101363.75
2022-10-17T23:58:24.797Z,101353.34
